Time;durP1;ratioP1;P1;durP2;ratioP2;P2;SDS_P1;SDS_P2;PMS_P1;PMS_P2;Temp;Humidity;BMP_temperature;BMP_pressure;BME280_temperature;BME280_humidity;BME280_pressure;Samples;Min_cycle;Max_cycle;Signal;HPM_P1;HPM_P2
2023/08/28 00:00:34;;;;;;;8.05;3.30;;;15.00;99.90;;;;;;5051583;28;20268;-49
2023/08/28 00:03:00;;;;;;;6.75;4.25;;;14.90;99.90;;;;;;5051984;28;20216;-49
2023/08/28 00:05:29;;;;;;;9.23;3.60;;;14.80;99.90;;;;;;5051494;28;20201;-49
2023/08/28 00:07:54;;;;;;;8.13;3.15;;;14.80;99.90;;;;;;5051489;28;20646;-49
2023/08/28 00:10:20;;;;;;;5.65;3.30;;;14.90;99.90;;;;;;5051467;28;20289;-49
2023/08/28 00:12:46;;;;;;;5.90;2.72;;;14.90;99.90;;;;;;5051343;28;20171;-49
2023/08/28 00:15:11;;;;;;;6.80;3.00;;;15.00;99.90;;;;;;5051484;28;20163;-49
2023/08/28 00:17:37;;;;;;;2.90;2.63;;;14.90;99.90;;;;;;5051307;28;20200;-49
2023/08/28 00:20:07;;;;;;;9.00;2.78;;;14.90;99.90;;;;;;5051402;28;20210;-49
2023/08/28 00:22:33;;;;;;;4.70;2.38;;;14.80;99.90;;;;;;5051237;28;20546;-49
2023/08/28 00:24:59;;;;;;;6.28;2.80;;;14.70;99.90;;;;;;5051701;28;20740;-48
2023/08/28 00:27:24;;;;;;;6.00;2.47;;;14.60;99.90;;;;;;5051522;28;20249;-49
2023/08/28 00:29:50;;;;;;;4.78;2.63;;;14.60;99.90;;;;;;5051268;28;20228;-49
2023/08/28 00:32:15;;;;;;;4.55;2.40;;;14.70;99.90;;;;;;5051278;28;20696;-49
2023/08/28 00:34:41;;;;;;;5.13;3.17;;;14.70;99.90;;;;;;5051158;28;20163;-49
2023/08/28 00:37:06;;;;;;;8.70;3.00;;;14.70;99.90;;;;;;5051062;28;20272;-49
2023/08/28 00:39:32;;;;;;;4.95;2.53;;;14.60;99.90;;;;;;5051547;28;20202;-49
2023/08/28 00:41:57;;;;;;;3.20;2.42;;;14.60;99.90;;;;;;5051532;28;20182;-49
2023/08/28 00:44:23;;;;;;;6.43;3.50;;;14.60;99.90;;;;;;5051079;28;20645;-50
2023/08/28 00:46:49;;;;;;;11.85;4.95;;;14.70;99.90;;;;;;5051268;28;20231;-51
2023/08/28 00:49:15;;;;;;;9.85;4.25;;;14.70;99.90;;;;;;5051011;28;20658;-52
2023/08/28 00:51:41;;;;;;;5.50;3.47;;;14.70;99.90;;;;;;5051118;28;20170;-52
2023/08/28 00:54:07;;;;;;;11.13;5.28;;;14.70;99.90;;;;;;5051212;28;20171;-51
2023/08/28 00:56:34;;;;;;;5.03;3.15;;;14.60;99.90;;;;;;5050932;28;20649;-51
2023/08/28 00:58:59;;;;;;;3.47;2.80;;;14.70;99.90;;;;;;5051337;28;20199;-51
2023/08/28 01:01:25;;;;;;;8.23;4.07;;;14.70;99.90;;;;;;5050927;28;20155;-51
2023/08/28 01:03:50;;;;;;;5.78;2.90;;;14.60;99.90;;;;;;5050840;28;20182;-51
2023/08/28 01:06:54;;;;;;;6.40;2.97;;;14.60;99.90;;;;;;5050859;28;20645;-51
2023/08/28 01:09:36;;;;;;;3.95;2.75;;;14.50;99.90;;;;;;4970209;28;20169;-52
2023/08/28 01:12:08;;;;;;;6.90;2.60;;;14.60;99.90;;;;;;4970591;28;20169;-51
2023/08/28 01:14:55;;;;;;;6.10;2.55;;;13.90;99.90;;;;;;5019217;28;20612;-52
2023/08/28 01:17:23;;;;;;;6.53;2.80;;;14.50;99.90;;;;;;5050790;28;20166;-51
2023/08/28 01:19:50;;;;;;;7.70;3.30;;;14.60;99.90;;;;;;5050641;28;20340;-48
2023/08/28 01:22:40;;;;;;;7.38;3.35;;;14.60;99.90;;;;;;5050776;28;20167;-48
2023/08/28 01:25:10;;;;;;;5.68;3.45;;;14.50;99.90;;;;;;5032842;28;20171;-48
2023/08/28 01:27:40;;;;;;;5.55;3.17;;;14.50;99.90;;;;;;5050949;28;20205;-48
2023/08/28 01:30:13;;;;;;;6.13;3.00;;;14.50;99.90;;;;;;5053963;28;20166;-48
2023/08/28 01:32:39;;;;;;;5.72;2.90;;;14.40;99.90;;;;;;5054388;28;20250;-48
2023/08/28 01:35:20;;;;;;;8.68;2.88;;;14.50;99.90;;;;;;5054597;28;20171;-48
2023/08/28 01:38:19;;;;;;;6.68;2.97;;;14.40;99.90;;;;;;5054064;28;20675;-48
2023/08/28 01:41:03;;;;;;;4.05;2.45;;;14.20;99.90;;;;;;5054181;28;20635;-48
2023/08/28 01:43:37;;;;;;;6.55;3.15;;;14.20;99.90;;;;;;5054795;28;20171;-48
2023/08/28 01:46:03;;;;;;;6.22;3.08;;;14.10;99.90;;;;;;5054105;28;20167;-48
2023/08/28 01:48:29;;;;;;;5.93;2.55;;;14.00;99.90;;;;;;5054396;28;20166;-48
2023/08/28 01:50:55;;;;;;;5.00;2.70;;;14.00;99.90;;;;;;5054223;28;20499;-48
2023/08/28 01:53:21;;;;;;;8.68;3.40;;;14.10;99.90;;;;;;5054122;28;20249;-48
2023/08/28 01:56:02;;;;;;;7.65;3.00;;;14.20;99.90;;;;;;5054072;28;20167;-48
2023/08/28 01:58:29;;;;;;;5.10;3.15;;;14.20;99.90;;;;;;5054172;28;20198;-48
2023/08/28 02:00:55;;;;;;;6.72;2.88;;;14.30;99.90;;;;;;5053831;28;20166;-49
2023/08/28 02:03:20;;;;;;;3.50;2.42;;;14.20;99.90;;;;;;5053743;28;20253;-48
2023/08/28 02:05:46;;;;;;;5.82;3.17;;;14.20;99.90;;;;;;5053936;28;20214;-48
2023/08/28 02:08:11;;;;;;;8.48;3.13;;;14.20;99.90;;;;;;5053650;28;20170;-48
2023/08/28 02:10:37;;;;;;;5.88;3.35;;;14.20;99.90;;;;;;5053541;28;20155;-48
2023/08/28 02:13:03;;;;;;;6.85;2.90;;;14.20;99.90;;;;;;5053509;28;20696;-48
2023/08/28 02:15:29;;;;;;;4.50;2.67;;;14.20;99.90;;;;;;5053923;28;20669;-51
2023/08/28 02:17:54;;;;;;;8.25;2.88;;;14.20;99.90;;;;;;5053426;28;20202;-51
2023/08/28 02:20:20;;;;;;;6.28;3.58;;;14.20;99.90;;;;;;5053299;28;20234;-50
2023/08/28 02:22:45;;;;;;;3.88;2.72;;;14.20;99.90;;;;;;5053375;28;20171;-49
2023/08/28 02:25:11;;;;;;;9.13;3.58;;;14.20;99.90;;;;;;5053320;28;20169;-49
2023/08/28 02:27:36;;;;;;;7.32;2.67;;;14.30;99.90;;;;;;5053263;28;20167;-49
2023/08/28 02:30:02;;;;;;;7.47;2.83;;;14.20;99.90;;;;;;5053226;28;20171;-49
2023/08/28 02:32:28;;;;;;;6.75;3.63;;;14.20;99.90;;;;;;5053558;28;20257;-49
2023/08/28 02:34:53;;;;;;;5.70;3.10;;;14.10;99.90;;;;;;5053091;28;20173;-49
2023/08/28 02:37:19;;;;;;;11.98;3.95;;;14.00;99.90;;;;;;5052833;28;20222;-48
2023/08/28 02:39:44;;;;;;;10.73;3.95;;;14.10;99.90;;;;;;5052985;28;20210;-48
2023/08/28 02:42:10;;;;;;;6.85;3.88;;;14.10;99.90;;;;;;5053000;28;20170;-49
2023/08/28 02:44:36;;;;;;;8.00;4.35;;;14.10;99.90;;;;;;5052943;28;20175;-48
2023/08/28 02:47:01;;;;;;;11.93;4.47;;;14.10;99.90;;;;;;5053492;28;20167;-48
2023/08/28 02:49:27;;;;;;;9.23;4.15;;;14.00;99.90;;;;;;5053271;28;20170;-48
2023/08/28 02:51:52;;;;;;;7.80;3.35;;;14.00;99.90;;;;;;5052778;28;20174;-48
2023/08/28 02:54:18;;;;;;;9.15;3.30;;;14.00;99.90;;;;;;5052963;28;20167;-48
2023/08/28 02:56:44;;;;;;;11.30;3.53;;;14.00;99.90;;;;;;5052678;28;20170;-48
2023/08/28 02:59:09;;;;;;;12.75;4.03;;;14.10;99.90;;;;;;5052568;28;20203;-48
2023/08/28 03:01:35;;;;;;;8.50;3.28;;;14.10;99.90;;;;;;5052894;28;20174;-48
2023/08/28 03:04:09;;;;;;;7.53;2.88;;;14.10;99.90;;;;;;5052976;28;20167;-50
2023/08/28 03:06:36;;;;;;;10.07;3.03;;;14.00;99.90;;;;;;5052612;28;20523;-49
2023/08/28 03:09:02;;;;;;;8.48;3.30;;;14.00;99.90;;;;;;5052610;28;20634;-48
2023/08/28 03:11:28;;;;;;;8.05;3.25;;;14.00;99.90;;;;;;5053109;28;20182;-49
2023/08/28 03:13:54;;;;;;;7.43;3.30;;;14.00;99.90;;;;;;5052387;28;20199;-48
2023/08/28 03:16:20;;;;;;;5.65;3.30;;;13.90;99.90;;;;;;5052334;28;20621;-50
2023/08/28 03:18:45;;;;;;;10.98;3.45;;;13.90;99.90;;;;;;5034359;28;20666;-49
2023/08/28 03:21:11;;;;;;;10.15;4.57;;;13.90;99.90;;;;;;5052244;28;20167;-48
2023/08/28 03:23:36;;;;;;;7.82;3.28;;;13.90;99.90;;;;;;5052191;28;20212;-48
2023/08/28 03:26:02;;;;;;;6.03;3.30;;;13.90;99.90;;;;;;5052208;28;20170;-48
2023/08/28 03:28:28;;;;;;;6.38;3.72;;;13.90;99.90;;;;;;5052838;28;20529;-48
2023/08/28 03:30:58;;;;;;;7.90;3.88;;;13.90;99.90;;;;;;5052112;28;20675;-48
2023/08/28 03:33:24;;;;;;;8.52;3.67;;;13.90;99.90;;;;;;5051966;28;20175;-48
2023/08/28 03:35:50;;;;;;;6.88;3.58;;;13.90;99.90;;;;;;5052079;28;20201;-48
2023/08/28 03:38:16;;;;;;;5.78;3.30;;;13.90;99.90;;;;;;5051807;28;20250;-48
2023/08/28 03:40:43;;;;;;;10.23;3.80;;;13.90;99.90;;;;;;5052102;28;20677;-49
2023/08/28 03:43:09;;;;;;;9.45;3.35;;;13.90;99.90;;;;;;5051910;28;20173;-49
2023/08/28 03:45:35;;;;;;;8.23;3.13;;;13.90;99.90;;;;;;5051864;28;20708;-49
2023/08/28 03:48:01;;;;;;;11.48;3.45;;;13.90;99.90;;;;;;5052286;28;20170;-48
2023/08/28 03:50:29;;;;;;;6.63;3.70;;;13.70;99.90;;;;;;5051995;28;20170;-49
2023/08/28 03:52:56;;;;;;;7.35;3.30;;;13.90;99.90;;;;;;5051371;28;20178;-48
2023/08/28 03:55:22;;;;;;;4.78;3.00;;;13.80;99.90;;;;;;5051732;28;20190;-49
2023/08/28 03:57:48;;;;;;;5.78;3.25;;;13.80;99.90;;;;;;5051606;28;20170;-48
2023/08/28 04:00:14;;;;;;;7.20;3.25;;;13.80;99.90;;;;;;5051799;28;20214;-48
2023/08/28 04:02:41;;;;;;;5.68;2.92;;;13.90;99.90;;;;;;5051768;28;20175;-49
2023/08/28 04:05:07;;;;;;;7.32;3.10;;;13.80;99.90;;;;;;5051666;28;20249;-48
2023/08/28 04:07:34;;;;;;;7.75;3.20;;;13.80;99.90;;;;;;5051643;28;20241;-48
2023/08/28 04:09:59;;;;;;;4.75;2.92;;;13.80;99.90;;;;;;5051908;28;20174;-48
2023/08/28 04:12:25;;;;;;;3.05;2.70;;;13.80;99.90;;;;;;5051749;28;20221;-48
2023/08/28 04:14:50;;;;;;;3.72;3.05;;;13.80;99.90;;;;;;5051397;28;20702;-48
2023/08/28 04:17:16;;;;;;;5.03;3.00;;;13.70;99.90;;;;;;5051366;28;20166;-48
2023/08/28 04:19:42;;;;;;;4.32;3.28;;;13.70;99.90;;;;;;5051215;28;20209;-48
2023/08/28 04:22:08;;;;;;;5.20;3.15;;;13.70;99.90;;;;;;5051314;28;20163;-48
2023/08/28 04:24:33;;;;;;;7.38;3.05;;;13.70;99.90;;;;;;5051309;28;20177;-48
2023/08/28 04:26:59;;;;;;;3.53;3.22;;;13.70;99.90;;;;;;5051743;28;20159;-49
2023/08/28 04:29:24;;;;;;;5.80;3.25;;;13.70;99.90;;;;;;5051258;28;20158;-48
2023/08/28 04:31:50;;;;;;;7.60;3.42;;;13.80;99.90;;;;;;5051159;28;20200;-49
2023/08/28 04:34:16;;;;;;;7.90;3.50;;;13.80;99.90;;;;;;5051160;28;20217;-48
2023/08/28 04:36:41;;;;;;;8.05;2.90;;;13.80;99.90;;;;;;5051075;28;20226;-48
2023/08/28 04:39:07;;;;;;;4.40;3.03;;;13.70;99.90;;;;;;5051129;28;20675;-48
2023/08/28 04:41:33;;;;;;;6.13;3.40;;;13.70;99.90;;;;;;5051087;28;20215;-48
2023/08/28 04:43:58;;;;;;;5.28;3.03;;;13.70;99.90;;;;;;5051817;28;20177;-49
2023/08/28 04:46:25;;;;;;;3.47;2.78;;;13.70;99.90;;;;;;5051164;28;20171;-48
2023/08/28 04:48:51;;;;;;;11.90;4.68;;;13.70;99.90;;;;;;5051195;28;20593;-48
2023/08/28 04:51:17;;;;;;;9.30;3.80;;;13.70;99.90;;;;;;5051206;28;20691;-48
2023/08/28 04:53:42;;;;;;;7.63;2.90;;;13.80;99.90;;;;;;5051380;28;20167;-48
2023/08/28 04:56:08;;;;;;;5.20;3.10;;;13.80;99.90;;;;;;5051086;28;20576;-48
2023/08/28 04:58:34;;;;;;;4.72;2.88;;;13.90;99.90;;;;;;5051185;28;20210;-49
2023/08/28 05:01:00;;;;;;;8.50;3.50;;;13.90;99.90;;;;;;5051524;28;20169;-48
2023/08/28 05:03:26;;;;;;;9.25;2.72;;;13.90;99.90;;;;;;5052273;28;20170;-49
2023/08/28 05:05:52;;;;;;;5.93;2.63;;;14.00;99.90;;;;;;5054855;28;20163;-50
2023/08/28 05:08:18;;;;;;;7.38;2.97;;;14.00;99.90;;;;;;5054818;28;20166;-48
2023/08/28 05:10:43;;;;;;;4.40;3.35;;;14.00;99.90;;;;;;5054725;28;20224;-49
2023/08/28 05:13:09;;;;;;;6.43;3.15;;;14.00;99.90;;;;;;5054766;28;20174;-48
2023/08/28 05:15:35;;;;;;;7.80;2.83;;;14.00;99.90;;;;;;5054661;28;20170;-48
2023/08/28 05:18:00;;;;;;;6.40;2.97;;;13.90;99.90;;;;;;5055274;28;20175;-48
2023/08/28 05:20:26;;;;;;;10.48;3.53;;;13.90;99.90;;;;;;5054953;28;20202;-48
2023/08/28 05:22:52;;;;;;;3.85;3.08;;;14.00;99.90;;;;;;5054655;28;20624;-48
2023/08/28 05:25:17;;;;;;;3.88;2.85;;;13.90;99.90;;;;;;5054583;28;20634;-49
2023/08/28 05:27:43;;;;;;;5.53;2.90;;;14.00;99.90;;;;;;5054595;28;20533;-49
2023/08/28 05:30:09;;;;;;;5.50;3.17;;;14.00;99.90;;;;;;5054361;28;20174;-49
2023/08/28 05:32:35;;;;;;;9.35;3.13;;;14.10;99.90;;;;;;5054431;28;20175;-49
2023/08/28 05:35:00;;;;;;;7.30;3.05;;;14.20;99.90;;;;;;5054851;28;20228;-51
2023/08/28 05:37:26;;;;;;;6.20;2.88;;;14.20;99.90;;;;;;5054614;28;20222;-48
2023/08/28 05:39:52;;;;;;;6.72;2.92;;;14.40;99.90;;;;;;5054017;28;20233;-50
2023/08/28 05:42:18;;;;;;;5.60;3.05;;;14.50;99.90;;;;;;5054100;28;20163;-50
2023/08/28 05:44:45;;;;;;;9.25;3.10;;;14.60;99.90;;;;;;5036167;28;20175;-49
2023/08/28 05:47:11;;;;;;;7.88;3.15;;;14.70;99.90;;;;;;5054318;28;20178;-48
2023/08/28 05:49:36;;;;;;;7.15;3.08;;;14.60;99.90;;;;;;5054054;28;20167;-49
2023/08/28 05:52:02;;;;;;;8.73;3.00;;;14.60;99.90;;;;;;5053923;28;20622;-48
2023/08/28 05:54:29;;;;;;;8.77;3.15;;;14.70;99.90;;;;;;5054424;28;20209;-48
2023/08/28 05:56:54;;;;;;;8.30;2.78;;;14.80;99.90;;;;;;5053834;28;20162;-48
2023/08/28 05:59:20;;;;;;;7.63;3.10;;;14.90;99.90;;;;;;5053700;28;20701;-49
2023/08/28 06:01:46;;;;;;;8.35;3.00;;;14.90;99.90;;;;;;5053742;28;20171;-49
2023/08/28 06:04:12;;;;;;;6.78;3.20;;;14.90;99.90;;;;;;5053994;28;20182;-48
2023/08/28 06:06:38;;;;;;;5.65;2.97;;;14.90;99.90;;;;;;5053761;28;20159;-48
2023/08/28 06:09:04;;;;;;;4.93;3.00;;;15.10;99.90;;;;;;5053871;28;20178;-48
2023/08/28 06:11:30;;;;;;;4.47;2.83;;;15.30;99.90;;;;;;5054235;28;20174;-50
2023/08/28 06:13:56;;;;;;;8.63;3.28;;;15.10;99.90;;;;;;5053404;28;20503;-48
2023/08/28 06:16:21;;;;;;;5.78;2.92;;;15.20;99.90;;;;;;5053740;28;20174;-49
2023/08/28 06:18:47;;;;;;;12.80;3.70;;;15.30;99.90;;;;;;5053345;28;20174;-48
2023/08/28 06:21:13;;;;;;;6.97;3.03;;;15.60;99.90;;;;;;5053735;28;20170;-48
2023/08/28 06:23:38;;;;;;;6.32;2.90;;;15.70;99.90;;;;;;5053575;28;20167;-48
2023/08/28 06:26:04;;;;;;;5.47;3.22;;;15.70;99.90;;;;;;5053341;28;20245;-49
2023/08/28 06:28:29;;;;;;;3.95;3.10;;;15.80;99.90;;;;;;5053683;28;20534;-49
2023/08/28 06:30:55;;;;;;;5.50;2.70;;;15.90;99.90;;;;;;5035661;28;20250;-48
2023/08/28 06:33:21;;;;;;;5.57;3.03;;;16.00;99.90;;;;;;5053172;28;20269;-49
2023/08/28 06:35:47;;;;;;;11.07;3.20;;;16.00;99.90;;;;;;5053421;28;20198;-48
2023/08/28 06:38:13;;;;;;;9.13;2.90;;;16.10;99.90;;;;;;5052991;28;20214;-48
2023/08/28 06:40:39;;;;;;;5.63;3.17;;;16.20;99.90;;;;;;5053025;28;20211;-49
2023/08/28 06:43:04;;;;;;;8.10;3.53;;;16.20;99.90;;;;;;5053025;28;20159;-49
2023/08/28 06:45:31;;;;;;;15.82;3.30;;;16.20;99.90;;;;;;5053657;28;20181;-49
2023/08/28 06:47:57;;;;;;;7.32;3.22;;;16.20;99.90;;;;;;5053561;28;20205;-49
2023/08/28 06:50:24;;;;;;;8.02;3.30;;;16.20;99.90;;;;;;5053220;28;20182;-49
2023/08/28 06:52:50;;;;;;;9.63;3.65;;;15.90;99.90;;;;;;5052912;28;20159;-49
2023/08/28 06:55:15;;;;;;;6.80;2.88;;;16.10;99.90;;;;;;5052853;28;20174;-48
2023/08/28 06:57:41;;;;;;;7.88;3.03;;;16.10;99.90;;;;;;5053018;28;20192;-49
2023/08/28 07:00:08;;;;;;;4.07;2.53;;;16.10;99.90;;;;;;5052643;28;20293;-49
2023/08/28 07:02:36;;;;;;;6.57;3.13;;;16.10;99.90;;;;;;5052891;28;20253;-49
2023/08/28 07:05:02;;;;;;;3.95;2.55;;;16.10;99.90;;;;;;5052523;28;20175;-48
2023/08/28 07:07:27;;;;;;;6.70;3.03;;;16.20;99.90;;;;;;5052931;28;20174;-49
2023/08/28 07:09:53;;;;;;;7.20;2.78;;;16.10;99.90;;;;;;5052486;28;20171;-48
2023/08/28 07:12:18;;;;;;;7.00;3.13;;;16.10;99.90;;;;;;5052462;28;20174;-48
2023/08/28 07:14:44;;;;;;;8.35;2.88;;;16.20;99.90;;;;;;5052365;28;20179;-50
2023/08/28 07:17:09;;;;;;;11.02;3.67;;;16.20;99.90;;;;;;5052339;28;20250;-49
2023/08/28 07:19:37;;;;;;;7.38;3.40;;;16.20;99.90;;;;;;5034726;28;20283;-49
2023/08/28 07:22:03;;;;;;;4.05;2.85;;;16.40;99.90;;;;;;5052611;28;20274;-49
2023/08/28 07:24:30;;;;;;;6.07;3.53;;;16.60;99.90;;;;;;5052874;28;20643;-49
2023/08/28 07:26:55;;;;;;;8.68;3.53;;;16.50;99.90;;;;;;5051755;28;20194;-48
2023/08/28 07:29:21;;;;;;;5.07;3.17;;;16.60;99.90;;;;;;5052204;28;20167;-48
2023/08/28 07:31:46;;;;;;;8.10;3.55;;;16.90;99.90;;;;;;5052191;28;20167;-48
2023/08/28 07:34:12;;;;;;;6.65;3.03;;;16.80;99.90;;;;;;5052098;28;20170;-48
2023/08/28 07:36:38;;;;;;;6.68;2.95;;;17.00;99.90;;;;;;5051981;28;20213;-48
2023/08/28 07:39:03;;;;;;;13.55;3.55;;;17.10;99.90;;;;;;5051936;28;20199;-48
2023/08/28 07:41:29;;;;;;;4.53;3.05;;;17.20;99.90;;;;;;5052361;28;20540;-49
2023/08/28 07:43:54;;;;;;;8.40;3.60;;;17.40;99.90;;;;;;5051978;28;20254;-47
2023/08/28 07:46:20;;;;;;;4.63;3.58;;;17.60;99.90;;;;;;5052108;28;20171;-48
2023/08/28 07:48:45;;;;;;;10.93;3.50;;;17.60;99.90;;;;;;5051825;28;20648;-48
2023/08/28 07:51:11;;;;;;;6.82;3.35;;;17.70;99.90;;;;;;5051740;28;20186;-48
2023/08/28 07:53:37;;;;;;;8.30;3.45;;;17.70;99.90;;;;;;5051720;28;20159;-48
2023/08/28 07:56:03;;;;;;;5.80;3.35;;;17.80;99.90;;;;;;5052018;28;20229;-48
2023/08/28 07:58:29;;;;;;;5.00;3.20;;;17.80;99.90;;;;;;5034111;28;20245;-48
2023/08/28 08:00:56;;;;;;;6.78;3.38;;;17.90;99.90;;;;;;5051612;28;20202;-48
2023/08/28 08:03:22;;;;;;;6.20;3.60;;;18.00;99.90;;;;;;5051866;28;20177;-49
2023/08/28 08:05:47;;;;;;;10.27;3.53;;;18.10;99.90;;;;;;5051554;28;20174;-48
2023/08/28 08:08:13;;;;;;;7.43;4.00;;;18.10;99.90;;;;;;5051618;28;20170;-49
2023/08/28 08:10:38;;;;;;;7.43;3.50;;;18.50;99.90;;;;;;5051486;28;20170;-49
2023/08/28 08:13:04;;;;;;;4.85;3.33;;;18.70;99.90;;;;;;5051596;28;20193;-49
2023/08/28 08:15:31;;;;;;;5.93;4.03;;;18.60;99.90;;;;;;5051628;28;20244;-48
2023/08/28 08:17:57;;;;;;;5.50;3.67;;;18.60;99.90;;;;;;5033999;28;20170;-49
2023/08/28 08:20:23;;;;;;;4.30;3.90;;;18.40;99.90;;;;;;5051328;28;20210;-48
2023/08/28 08:22:48;;;;;;;5.00;3.70;;;18.50;99.90;;;;;;5033840;28;20220;-48
2023/08/28 08:25:14;;;;;;;5.40;4.53;;;18.70;99.90;;;;;;5033522;28;20642;-48
2023/08/28 08:27:44;;;;;;;8.18;4.80;;;18.50;99.90;;;;;;5051344;28;20645;-48
2023/08/28 08:30:10;;;;;;;8.32;4.80;;;18.60;99.90;;;;;;5033448;28;20194;-48
2023/08/28 08:32:36;;;;;;;5.78;4.22;;;18.60;99.90;;;;;;5051311;28;20708;-50
2023/08/28 08:35:05;;;;;;;7.72;4.05;;;18.60;99.90;;;;;;5051528;28;20245;-48
2023/08/28 08:37:31;;;;;;;6.93;3.75;;;19.00;99.90;;;;;;5051977;28;20276;-50
2023/08/28 08:39:56;;;;;;;5.53;4.35;;;15.50;99.90;;;;;;5055876;28;20218;-50
2023/08/28 08:42:22;;;;;;;5.88;4.22;;;19.90;99.90;;;;;;5055254;28;20170;-48
2023/08/28 08:44:48;;;;;;;6.47;4.25;;;19.80;99.90;;;;;;5055326;28;20166;-48
2023/08/28 08:47:15;;;;;;;4.80;3.80;;;19.50;99.90;;;;;;5055450;28;20171;-50
2023/08/28 08:49:42;;;;;;;5.82;3.90;;;19.60;99.90;;;;;;5055108;28;20656;-48
2023/08/28 08:52:09;;;;;;;5.40;4.38;;;19.70;99.90;;;;;;5055176;28;20177;-49
2023/08/28 08:54:41;;;;;;;7.63;4.38;;;19.50;99.90;;;;;;5055387;28;20556;-51
2023/08/28 08:57:20;;;;;;;6.00;4.38;;;19.30;99.90;;;;;;5054996;28;20171;-48
2023/08/28 08:59:46;;;;;;;4.35;3.95;;;19.40;99.90;;;;;;5054886;28;20198;-48
2023/08/28 09:02:12;;;;;;;12.13;4.15;;;19.50;99.90;;;;;;5054914;28;20700;-48
2023/08/28 09:04:41;;;;;;;7.20;4.35;;;19.40;99.90;;;;;;5054854;28;20171;-50
2023/08/28 09:07:07;;;;;;;7.20;4.28;;;19.40;99.90;;;;;;5037161;28;20170;-48
2023/08/28 09:09:33;;;;;;;9.98;7.40;;;19.50;99.90;;;;;;5054944;28;20521;-48
2023/08/28 09:11:59;;;;;;;12.07;8.65;;;19.60;99.90;;;;;;5055268;28;20181;-48
2023/08/28 09:14:26;;;;;;;19.75;13.98;;;19.80;99.90;;;;;;5055418;28;20166;-48
2023/08/28 09:16:52;;;;;;;11.98;8.02;;;19.80;99.90;;;;;;5054946;28;20198;-48
2023/08/28 09:19:18;;;;;;;12.25;8.23;;;20.00;99.90;;;;;;5054609;28;20230;-48
2023/08/28 09:21:47;;;;;;;8.77;5.00;;;20.00;99.90;;;;;;5054783;28;20171;-48
2023/08/28 09:24:13;;;;;;;7.30;6.35;;;20.00;99.90;;;;;;5054801;28;20575;-49
2023/08/28 09:26:38;;;;;;;8.60;4.85;;;19.90;99.90;;;;;;5054469;28;20186;-49
2023/08/28 09:29:08;;;;;;;6.82;4.18;;;19.70;99.90;;;;;;5054635;28;20175;-48
2023/08/28 09:31:36;;;;;;;6.50;4.82;;;19.60;99.90;;;;;;5054300;28;20170;-48
2023/08/28 09:34:03;;;;;;;4.95;3.90;;;19.70;99.90;;;;;;5054592;28;20244;-48
2023/08/28 09:36:41;;;;;;;6.03;3.83;;;19.60;99.90;;;;;;5054718;28;20217;-48
2023/08/28 09:39:07;;;;;;;4.18;3.30;;;19.50;99.90;;;;;;5054186;28;20206;-48
2023/08/28 09:41:50;;;;;;;7.75;3.33;;;19.60;99.90;;;;;;5054110;28;20171;-48
2023/08/28 09:44:17;;;;;;;6.15;4.22;;;19.80;99.90;;;;;;5054182;28;20249;-48
2023/08/28 09:46:44;;;;;;;8.45;4.25;;;19.70;99.90;;;;;;5054351;28;20174;-48
2023/08/28 09:49:11;;;;;;;5.30;3.67;;;19.90;99.90;;;;;;5053041;28;20578;-48
2023/08/28 09:51:43;;;;;;;7.88;4.07;;;20.10;99.90;;;;;;5054232;28;20257;-48
2023/08/28 09:54:10;;;;;;;5.07;3.55;;;19.90;99.90;;;;;;5036140;28;20261;-48
2023/08/28 09:56:37;;;;;;;6.78;3.63;;;19.80;99.90;;;;;;5054012;28;20519;-48
2023/08/28 09:59:04;;;;;;;9.10;3.95;;;19.80;99.90;;;;;;5053784;28;20530;-48
2023/08/28 10:01:34;;;;;;;4.65;3.40;;;19.80;99.90;;;;;;5036002;28;20208;-48
2023/08/28 10:04:04;;;;;;;3.55;3.00;;;19.90;99.90;;;;;;5053774;28;20167;-48
2023/08/28 10:06:33;;;;;;;5.45;3.45;;;19.90;99.90;;;;;;5053685;28;20580;-49
2023/08/28 10:09:00;;;;;;;5.03;3.08;;;19.90;99.90;;;;;;5054118;28;20274;-50
2023/08/28 10:11:46;;;;;;;3.55;3.05;;;20.20;99.90;;;;;;5054410;28;20175;-51
2023/08/28 10:14:14;;;;;;;5.03;2.58;;;20.10;99.90;;;;;;5053497;28;20239;-50
2023/08/28 10:16:47;;;;;;;5.80;2.63;;;20.20;99.90;;;;;;5053602;28;20173;-51
2023/08/28 10:19:21;;;;;;;4.93;2.78;;;20.50;99.90;;;;;;5035841;28;20213;-50
2023/08/28 10:21:48;;;;;;;8.73;2.92;;;20.60;99.90;;;;;;5053738;28;20179;-51
2023/08/28 10:24:15;;;;;;;6.82;3.08;;;20.40;99.90;;;;;;5053668;28;20242;-48
2023/08/28 10:26:42;;;;;;;4.25;2.70;;;20.50;99.90;;;;;;5053341;28;20178;-51
2023/08/28 10:29:09;;;;;;;3.97;2.60;;;20.80;99.90;;;;;;5035476;28;20244;-50
2023/08/28 10:31:37;;;;;;;4.72;2.42;;;20.60;99.90;;;;;;5053290;28;20615;-51
2023/08/28 10:34:03;;;;;;;4.80;2.38;;;20.60;99.90;;;;;;5035610;28;20174;-51
2023/08/28 10:36:30;;;;;;;3.20;1.80;;;20.60;99.90;;;;;;5053562;28;20625;-50
2023/08/28 10:38:57;;;;;;;6.40;2.42;;;20.90;99.90;;;;;;5053475;28;20228;-50
2023/08/28 10:41:25;;;;;;;2.65;2.13;;;20.90;99.90;;;;;;5053185;28;20181;-48
2023/08/28 10:43:51;;;;;;;3.60;1.92;;;20.80;99.90;;;;;;5053108;28;20163;-49
2023/08/28 10:46:19;;;;;;;4.65;2.00;;;20.90;99.90;;;;;;5053130;28;20170;-48
2023/08/28 10:48:45;;;;;;;4.53;1.80;;;21.00;99.90;;;;;;5035193;28;20173;-51
2023/08/28 10:51:12;;;;;;;4.80;1.60;;;21.20;99.90;;;;;;5052876;28;20170;-52
2023/08/28 10:53:38;;;;;;;3.47;1.90;;;21.30;99.90;;;;;;5053253;28;20509;-49
2023/08/28 10:56:05;;;;;;;4.22;1.83;;;21.20;99.90;;;;;;5052802;28;20174;-51
2023/08/28 10:58:32;;;;;;;2.78;1.73;;;21.10;99.90;;;;;;5053019;28;20167;-51
2023/08/28 11:01:14;;;;;;;4.00;1.88;;;21.40;99.90;;;;;;5035110;28;20213;-48
2023/08/28 11:03:51;;;;;;;3.85;1.98;;;21.40;99.90;;;;;;5052698;28;20158;-49
2023/08/28 11:06:39;;;;;;;4.45;2.20;;;21.60;99.90;;;;;;5052583;28;20170;-49
2023/08/28 11:09:26;;;;;;;7.35;2.70;;;21.70;99.90;;;;;;5052857;28;20167;-49
2023/08/28 11:12:13;;;;;;;3.08;2.35;;;21.70;99.90;;;;;;5052564;28;20190;-48
2023/08/28 11:14:40;;;;;;;3.78;2.08;;;21.50;99.90;;;;;;5052367;28;20261;-50
2023/08/28 11:17:15;;;;;;;5.10;2.30;;;21.40;99.90;;;;;;5052443;28;20675;-49
2023/08/28 11:19:56;;;;;;;7.43;3.28;;;21.50;99.90;;;;;;5052507;28;20224;-50
2023/08/28 11:22:35;;;;;;;4.95;2.53;;;21.50;99.90;;;;;;5052644;28;20250;-50
2023/08/28 11:25:04;;;;;;;5.65;2.97;;;21.50;99.90;;;;;;5052527;28;20178;-51
2023/08/28 11:27:42;;;;;;;9.32;2.95;;;21.50;99.90;;;;;;5052412;28;20584;-52
2023/08/28 11:30:09;;;;;;;6.55;3.33;;;21.40;99.90;;;;;;5052465;28;20166;-51
2023/08/28 11:32:37;;;;;;;5.47;2.70;;;21.30;99.90;;;;;;5052209;28;20163;-49
2023/08/28 11:35:05;;;;;;;3.85;2.70;;;21.30;99.90;;;;;;5052237;28;20190;-49
2023/08/28 11:37:33;;;;;;;2.85;2.35;;;21.30;99.90;;;;;;5051949;28;20284;-48
2023/08/28 11:40:01;;;;;;;3.45;2.30;;;21.30;99.90;;;;;;5052424;28;20265;-51
2023/08/28 11:42:30;;;;;;;4.38;2.25;;;21.30;99.90;;;;;;5052442;28;20190;-49
2023/08/28 11:44:55;;;;;;;7.63;2.67;;;21.50;99.90;;;;;;5052458;28;20172;-51
2023/08/28 11:47:30;;;;;;;6.90;2.47;;;21.30;99.90;;;;;;5052162;28;20253;-51
2023/08/28 11:49:56;;;;;;;3.67;2.05;;;21.30;99.90;;;;;;5052254;28;20669;-51
2023/08/28 11:52:23;;;;;;;3.55;2.25;;;21.20;99.90;;;;;;5051796;28;20199;-51
2023/08/28 11:54:49;;;;;;;7.05;2.35;;;21.20;99.90;;;;;;5052057;28;20693;-50
2023/08/28 11:57:17;;;;;;;6.30;2.38;;;21.20;99.90;;;;;;5034191;28;20181;-51
2023/08/28 11:59:44;;;;;;;5.57;2.13;;;21.40;99.90;;;;;;5051846;28;20220;-51
2023/08/28 12:02:13;;;;;;;6.38;2.22;;;21.50;99.90;;;;;;5051939;28;20167;-51
2023/08/28 12:04:39;;;;;;;3.35;2.20;;;21.50;99.90;;;;;;5051646;28;20198;-48
2023/08/28 12:07:15;;;;;;;2.83;1.98;;;21.60;99.90;;;;;;5051608;28;20174;-49
2023/08/28 12:09:41;;;;;;;5.50;2.38;;;21.60;99.90;;;;;;5051587;28;20162;-52
2023/08/28 12:12:07;;;;;;;10.02;2.67;;;21.80;99.90;;;;;;5051054;28;20185;-51
2023/08/28 12:14:33;;;;;;;3.65;2.20;;;21.70;99.90;;;;;;5051522;28;20162;-50
2023/08/28 12:17:00;;;;;;;4.70;2.47;;;21.90;99.90;;;;;;5051652;28;20197;-49
2023/08/28 12:19:25;;;;;;;4.40;2.00;;;22.00;99.90;;;;;;5052036;28;20578;-47
2023/08/28 12:21:51;;;;;;;3.30;2.13;;;21.90;99.90;;;;;;5051682;28;20185;-48
2023/08/28 12:24:17;;;;;;;4.45;1.75;;;21.90;99.90;;;;;;5051339;28;20660;-50
2023/08/28 12:26:43;;;;;;;2.47;2.00;;;22.00;99.90;;;;;;5050697;28;20213;-50
2023/08/28 12:29:09;;;;;;;4.05;2.30;;;22.00;99.90;;;;;;5051389;28;20523;-47
2023/08/28 12:31:36;;;;;;;4.43;1.98;;;22.10;99.90;;;;;;5051133;28;20174;-48
2023/08/28 12:34:09;;;;;;;3.85;1.98;;;22.00;99.90;;;;;;5051108;28;20254;-48
2023/08/28 12:36:45;;;;;;;2.83;1.92;;;22.00;99.90;;;;;;5050896;28;20240;-48
2023/08/28 12:39:21;;;;;;;4.40;2.20;;;21.90;99.90;;;;;;5051094;28;20206;-48
2023/08/28 12:41:54;;;;;;;4.80;2.22;;;21.80;99.90;;;;;;5050985;28;20227;-49
2023/08/28 12:44:20;;;;;;;4.97;2.40;;;21.60;99.90;;;;;;5050903;28;20258;-47
2023/08/28 12:46:46;;;;;;;3.17;2.10;;;21.60;99.90;;;;;;5051118;28;20182;-50